sensor_id;sensor_type;location;lat;lon;timestamp;P1;P2;P0
45788;PMS7003;31492;54.856;26.318;2022-09-27T02:14:14;20;18.3;14
45788;PMS7003;31492;54.856;26.318;2022-09-27T02:19:23;26;24.5;16.5
45788;PMS7003;31492;54.856;26.318;2022-09-27T02:24:13;28.4;25.8;18
45788;PMS7003;31492;54.856;26.318;2022-09-27T02:29:10;25.6;24;16.8
45788;PMS7003;31492;54.856;26.318;2022-09-27T02:34:16;27;24.6;17.8
45788;PMS7003;31492;54.856;26.318;2022-09-27T02:39:12;29.5;25.5;17.5
45788;PMS7003;31492;54.856;26.318;2022-09-27T02:44:13;30.4;26.2;18
45788;PMS7003;31492;54.856;26.318;2022-09-27T02:50:02;29.2;26.8;17.8
45788;PMS7003;31492;54.856;26.318;2022-09-27T02:54:20;30.2;27.2;19
45788;PMS7003;31492;54.856;26.318;2022-09-27T02:59:12;27.8;25.5;17.8
45788;PMS7003;31492;54.856;26.318;2022-09-27T03:04:10;28.8;27;18.2
45788;PMS7003;31492;54.856;26.318;2022-09-27T03:09:24;28.4;25.6;18.4
45788;PMS7003;31492;54.856;26.318;2022-09-27T03:14:02;26.4;24;17.6
45788;PMS7003;31492;54.856;26.318;2022-09-27T03:19:07;25.8;22.5;16.5
45788;PMS7003;31492;54.856;26.318;2022-09-27T03:24:06;25.8;23.4;15.8
45788;PMS7003;31492;54.856;26.318;2022-09-27T03:28:56;20.6;20;14.8
45788;PMS7003;31492;54.856;26.318;2022-09-27T03:34:10;22.8;20.4;15.8
45788;PMS7003;31492;54.856;26.318;2022-09-27T03:39:04;23;21.5;15.5
45788;PMS7003;31492;54.856;26.318;2022-09-27T03:44:06;25.4;23.2;15.8
45788;PMS7003;31492;54.856;26.318;2022-09-27T03:49:10;25.2;22.8;15.2
45788;PMS7003;31492;54.856;26.318;2022-09-27T03:54:14;22.8;20.6;14.8
45788;PMS7003;31492;54.856;26.318;2022-09-27T03:59:10;22.2;21;15
45788;PMS7003;31492;54.856;26.318;2022-09-27T04:04:14;20.8;19.3;13.5
45788;PMS7003;31492;54.856;26.318;2022-09-27T04:09:12;22.6;20.6;15.4
45788;PMS7003;31492;54.856;26.318;2022-09-27T04:14:10;20;18.2;14.4
45788;PMS7003;31492;54.856;26.318;2022-09-27T04:19:07;21.8;20.4;14.4
45788;PMS7003;31492;54.856;26.318;2022-09-27T04:24:06;19.5;18.5;14.5
45788;PMS7003;31492;54.856;26.318;2022-09-27T04:29:14;19.8;19.4;14.2
45788;PMS7003;31492;54.856;26.318;2022-09-27T04:34:06;18.2;17.4;12.8
45788;PMS7003;31492;54.856;26.318;2022-09-27T04:39:05;17.6;17.4;12.4
45788;PMS7003;31492;54.856;26.318;2022-09-27T04:44:08;19;17;13
45788;PMS7003;31492;54.856;26.318;2022-09-27T04:49:10;18.2;17;12.8
45788;PMS7003;31492;54.856;26.318;2022-09-27T04:54:10;16.2;15.4;11.6
45788;PMS7003;31492;54.856;26.318;2022-09-27T04:59:07;18.2;17;13.4
45788;PMS7003;31492;54.856;26.318;2022-09-27T05:03:52;16.8;16.3;11.5
45788;PMS7003;31492;54.856;26.318;2022-09-27T05:09:08;17.4;16.6;12
45788;PMS7003;31492;54.856;26.318;2022-09-27T05:14:08;17;16;13
45788;PMS7003;31492;54.856;26.318;2022-09-27T05:19:14;18.8;16.6;12.2
45788;PMS7003;31492;54.856;26.318;2022-09-27T05:24:06;16.8;15.8;12
45788;PMS7003;31492;54.856;26.318;2022-09-27T05:29:10;16.2;15.2;11.6
45788;PMS7003;31492;54.856;26.318;2022-09-27T05:34:06;17;15.6;12.4
45788;PMS7003;31492;54.856;26.318;2022-09-27T05:39:06;16.8;15.6;10.6
45788;PMS7003;31492;54.856;26.318;2022-09-27T05:44:11;17.4;16.2;12
45788;PMS7003;31492;54.856;26.318;2022-09-27T05:49:08;14.8;14.3;11
45788;PMS7003;31492;54.856;26.318;2022-09-27T05:54:08;14.6;14.2;10.8
45788;PMS7003;31492;54.856;26.318;2022-09-27T05:59:06;14;13.8;9.8
45788;PMS7003;31492;54.856;26.318;2022-09-27T06:04:04;17.2;15;11.6
45788;PMS7003;31492;54.856;26.318;2022-09-27T06:09:09;16.3;15.8;11
45788;PMS7003;31492;54.856;26.318;2022-09-27T06:14:08;15.6;14.8;11.2
45788;PMS7003;31492;54.856;26.318;2022-09-27T06:19:04;16.8;15.2;11.4
45788;PMS7003;31492;54.856;26.318;2022-09-27T06:24:08;17.6;16.6;12.4
45788;PMS7003;31492;54.856;26.318;2022-09-27T06:29:04;15.8;15;10.8
45788;PMS7003;31492;54.856;26.318;2022-09-27T06:34:08;17.8;15.8;11
45788;PMS7003;31492;54.856;26.318;2022-09-27T06:39:06;17.4;16.4;11.2
45788;PMS7003;31492;54.856;26.318;2022-09-27T06:44:10;16.8;15.2;12
45788;PMS7003;31492;54.856;26.318;2022-09-27T06:49:04;16.3;16;12.3
45788;PMS7003;31492;54.856;26.318;2022-09-27T06:54:04;18.4;15.8;11.8
45788;PMS7003;31492;54.856;26.318;2022-09-27T06:59:08;16.8;15.8;11.6
45788;PMS7003;31492;54.856;26.318;2022-09-27T07:04:07;17.2;16;11.2
45788;PMS7003;31492;54.856;26.318;2022-09-27T07:09:02;17;15.3;11.5
45788;PMS7003;31492;54.856;26.318;2022-09-27T07:14:04;18;16;11.8
45788;PMS7003;31492;54.856;26.318;2022-09-27T07:19:06;16.8;15.6;10.8
45788;PMS7003;31492;54.856;26.318;2022-09-27T07:24:06;17.4;16;12
45788;PMS7003;31492;54.856;26.318;2022-09-27T07:29:08;18.6;17.2;12.8
45788;PMS7003;31492;54.856;26.318;2022-09-27T07:34:08;16.8;15.5;11.8
45788;PMS7003;31492;54.856;26.318;2022-09-27T07:39:05;16;15.4;11.6
45788;PMS7003;31492;54.856;26.318;2022-09-27T07:44:04;17;14;10.4
45788;PMS7003;31492;54.856;26.318;2022-09-27T07:49:06;18.2;16.6;11.6
45788;PMS7003;31492;54.856;26.318;2022-09-27T07:54:08;18.3;16.3;12.5
45788;PMS7003;31492;54.856;26.318;2022-09-27T07:59:06;14.8;14.6;10.6
45788;PMS7003;31492;54.856;26.318;2022-09-27T08:03:58;17.4;15.6;11.4
45788;PMS7003;31492;54.856;26.318;2022-09-27T08:09:06;16.6;16;11.6
45788;PMS7003;31492;54.856;26.318;2022-09-27T08:14:08;16.5;15;11
45788;PMS7003;31492;54.856;26.318;2022-09-27T08:19:06;13.8;13.2;9.6
45788;PMS7003;31492;54.856;26.318;2022-09-27T08:24:06;15.8;14.6;11
45788;PMS7003;31492;54.856;26.318;2022-09-27T08:29:02;14;13.6;10
45788;PMS7003;31492;54.856;26.318;2022-09-27T08:34:04;15;14.8;11
45788;PMS7003;31492;54.856;26.318;2022-09-27T08:39:01;16.4;14;10.2
45788;PMS7003;31492;54.856;26.318;2022-09-27T08:44:06;15.2;13.4;10.8
45788;PMS7003;31492;54.856;26.318;2022-09-27T08:49:13;14.2;12.4;9.6
45788;PMS7003;31492;54.856;26.318;2022-09-27T08:54:09;13.8;13;9.5
45788;PMS7003;31492;54.856;26.318;2022-09-27T08:59:13;12.4;12;9
45788;PMS7003;31492;54.856;26.318;2022-09-27T09:04:09;13.4;12.2;9
45788;PMS7003;31492;54.856;26.318;2022-09-27T09:09:15;12.2;12;9.6
45788;PMS7003;31492;54.856;26.318;2022-09-27T09:19:06;10.3;10.3;9
45788;PMS7003;31492;54.856;26.318;2022-09-27T09:24:10;11.8;11.2;8.8
45788;PMS7003;31492;54.856;26.318;2022-09-27T09:34:06;10.8;10.2;7.8
45788;PMS7003;31492;54.856;26.318;2022-09-27T09:39:04;11;10.8;8.3
45788;PMS7003;31492;54.856;26.318;2022-09-27T09:44:04;12.2;11.2;9
45788;PMS7003;31492;54.856;26.318;2022-09-27T09:49:07;11.2;10.8;8.4
45788;PMS7003;31492;54.856;26.318;2022-09-27T09:55:14;12.2;11.2;9
45788;PMS7003;31492;54.856;26.318;2022-09-27T09:58:58;11.8;11.5;9.3
45788;PMS7003;31492;54.856;26.318;2022-09-27T10:04:40;10.6;10.2;8.6
45788;PMS7003;31492;54.856;26.318;2022-09-27T10:09:08;12.2;11.6;9
45788;PMS7003;31492;54.856;26.318;2022-09-27T10:14:10;11;10.6;9
45788;PMS7003;31492;54.856;26.318;2022-09-27T10:19:11;11.5;10.8;9
45788;PMS7003;31492;54.856;26.318;2022-09-27T10:24:12;10.4;10;8.4
45788;PMS7003;31492;54.856;26.318;2022-09-27T10:29:32;10.2;10;8.2
45788;PMS7003;31492;54.856;26.318;2022-09-27T10:34:03;12.4;11;9
45788;PMS7003;31492;54.856;26.318;2022-09-27T10:39:18;12.5;11.3;9.3
45788;PMS7003;31492;54.856;26.318;2022-09-27T10:44:22;11.6;11;8.6
45788;PMS7003;31492;54.856;26.318;2022-09-27T10:49:40;13;12.8;9.8
45788;PMS7003;31492;54.856;26.318;2022-09-27T10:54:25;12.4;11.6;9.6
45788;PMS7003;31492;54.856;26.318;2022-09-27T10:59:05;12.2;11;8.8
45788;PMS7003;31492;54.856;26.318;2022-09-27T11:04:03;12.3;12;10
45788;PMS7003;31492;54.856;26.318;2022-09-27T11:09:20;13.4;12.8;9.4
45788;PMS7003;31492;54.856;26.318;2022-09-27T11:14:22;13.6;12.4;10
45788;PMS7003;31492;54.856;26.318;2022-09-27T11:19:15;13.4;13;10.2
45788;PMS7003;31492;54.856;26.318;2022-09-27T11:24:14;14.5;13.5;10.3
45788;PMS7003;31492;54.856;26.318;2022-09-27T11:29:35;12.6;11.8;9.4
45788;PMS7003;31492;54.856;26.318;2022-09-27T11:34:12;13.8;13;10.4
45788;PMS7003;31492;54.856;26.318;2022-09-27T11:39:10;13.8;13.6;10.2
45788;PMS7003;31492;54.856;26.318;2022-09-27T11:44:19;14.8;14;10.5
45788;PMS7003;31492;54.856;26.318;2022-09-27T11:49:18;14.4;13.2;10.4
45788;PMS7003;31492;54.856;26.318;2022-09-27T11:54:37;15.8;14.2;11
45788;PMS7003;31492;54.856;26.318;2022-09-27T11:59:28;13.8;13.2;11.2
45788;PMS7003;31492;54.856;26.318;2022-09-27T12:04:20;14.5;14.3;11.5
45788;PMS7003;31492;54.856;26.318;2022-09-27T12:09:08;13.2;11.6;9.6
45788;PMS7003;31492;54.856;26.318;2022-09-27T12:14:05;15.2;14.4;11.4
45788;PMS7003;31492;54.856;26.318;2022-09-27T12:19:10;11.6;11.4;9.6
45788;PMS7003;31492;54.856;26.318;2022-09-27T12:24:08;14.8;12.8;10
45788;PMS7003;31492;54.856;26.318;2022-09-27T12:29:37;12.6;12.4;10.4
45788;PMS7003;31492;54.856;26.318;2022-09-27T12:34:14;14.8;14;10.8
45788;PMS7003;31492;54.856;26.318;2022-09-27T12:39:09;12.6;12;9.8
45788;PMS7003;31492;54.856;26.318;2022-09-27T12:44:07;13;12;9.8
45788;PMS7003;31492;54.856;26.318;2022-09-27T12:49:11;13.5;12.5;9.8
45788;PMS7003;31492;54.856;26.318;2022-09-27T12:54:20;11.6;11.2;10
45788;PMS7003;31492;54.856;26.318;2022-09-27T12:59:24;14.2;13.2;9.6
45788;PMS7003;31492;54.856;26.318;2022-09-27T13:04:07;12.2;11.4;9
45788;PMS7003;31492;54.856;26.318;2022-09-27T13:09:30;12.8;11.8;9.3
45788;PMS7003;31492;54.856;26.318;2022-09-27T13:14:26;12.8;12.2;10
45788;PMS7003;31492;54.856;26.318;2022-09-27T13:19:42;12.4;11.8;9.6
45788;PMS7003;31492;54.856;26.318;2022-09-27T13:24:24;11.6;11.4;9.6
45788;PMS7003;31492;54.856;26.318;2022-09-27T13:28:58;13;12;9.8
45788;PMS7003;31492;54.856;26.318;2022-09-27T13:34:12;12.6;11.6;9.2
45788;PMS7003;31492;54.856;26.318;2022-09-27T13:39:12;11.6;11.4;9.2
45788;PMS7003;31492;54.856;26.318;2022-09-27T13:44:06;11.6;11.4;9
45788;PMS7003;31492;54.856;26.318;2022-09-27T13:49:41;11.3;10.8;9.8
45788;PMS7003;31492;54.856;26.318;2022-09-27T13:54:02;12;11.4;9.4
45788;PMS7003;31492;54.856;26.318;2022-09-27T13:59:09;13.2;12.2;10.2
45788;PMS7003;31492;54.856;26.318;2022-09-27T14:04:17;11.8;11.6;8.8
45788;PMS7003;31492;54.856;26.318;2022-09-27T14:09:12;12;11.5;9.8
45788;PMS7003;31492;54.856;26.318;2022-09-27T14:13:49;13;12.2;10
45788;PMS7003;31492;54.856;26.318;2022-09-27T14:19:05;12.6;11.2;9.2
45788;PMS7003;31492;54.856;26.318;2022-09-27T14:24:46;11.4;10.8;9.2
45788;PMS7003;31492;54.856;26.318;2022-09-27T14:29:17;11.8;11.6;10
45788;PMS7003;31492;54.856;26.318;2022-09-27T14:33:37;12;11.5;9.5
45788;PMS7003;31492;54.856;26.318;2022-09-27T14:39:11;12.6;12;10
45788;PMS7003;31492;54.856;26.318;2022-09-27T14:44:03;11.4;11.2;9.2
45788;PMS7003;31492;54.856;26.318;2022-09-27T14:49:21;13.6;12.2;9.8
45788;PMS7003;31492;54.856;26.318;2022-09-27T14:54:17;13.5;12.3;10.3
45788;PMS7003;31492;54.856;26.318;2022-09-27T14:59:13;13.8;12.6;9.8
45788;PMS7003;31492;54.856;26.318;2022-09-27T15:04:11;13.6;12.4;10.4
45788;PMS7003;31492;54.856;26.318;2022-09-27T15:09:09;12.4;12;9.4
45788;PMS7003;31492;54.856;26.318;2022-09-27T15:14:12;14.3;13.5;9.8
45788;PMS7003;31492;54.856;26.318;2022-09-27T15:19:15;12.2;12;9.8
45788;PMS7003;31492;54.856;26.318;2022-09-27T15:29:01;13.6;12.8;10.4
45788;PMS7003;31492;54.856;26.318;2022-09-27T15:34:05;12.8;12.8;10.5
45788;PMS7003;31492;54.856;26.318;2022-09-27T15:39:06;13.8;13;10.6
45788;PMS7003;31492;54.856;26.318;2022-09-27T15:44:07;14.8;14;11.4
45788;PMS7003;31492;54.856;26.318;2022-09-27T15:49:19;14.4;13.4;10.8
45788;PMS7003;31492;54.856;26.318;2022-09-27T15:54:05;15;13.5;10.5
45788;PMS7003;31492;54.856;26.318;2022-09-27T15:59:12;13;12.4;10
45788;PMS7003;31492;54.856;26.318;2022-09-27T16:04:07;15;14;11.2
45788;PMS7003;31492;54.856;26.318;2022-09-27T16:09:15;14.8;13.2;10.6
45788;PMS7003;31492;54.856;26.318;2022-09-27T16:14:05;14.4;14.2;11
45788;PMS7003;31492;54.856;26.318;2022-09-27T16:19:07;14.8;14.5;11.3
45788;PMS7003;31492;54.856;26.318;2022-09-27T16:24:07;14.6;13.8;11.2
45788;PMS7003;31492;54.856;26.318;2022-09-27T16:29:10;14.4;13.2;11.2
45788;PMS7003;31492;54.856;26.318;2022-09-27T16:34:07;14.8;14.4;11.2
45788;PMS7003;31492;54.856;26.318;2022-09-27T16:39:11;12.8;12.8;10.5
45788;PMS7003;31492;54.856;26.318;2022-09-27T16:44:12;14;13.2;10.4
45788;PMS7003;31492;54.856;26.318;2022-09-27T16:49:07;14.4;13.8;10.8
45788;PMS7003;31492;54.856;26.318;2022-09-27T16:54:03;15.6;14;11.4
45788;PMS7003;31492;54.856;26.318;2022-09-27T16:59:05;15.8;14.8;12.8
45788;PMS7003;31492;54.856;26.318;2022-09-27T17:03:59;17.4;15.8;12.4
45788;PMS7003;31492;54.856;26.318;2022-09-27T17:09:05;17.8;16.8;13
45788;PMS7003;31492;54.856;26.318;2022-09-27T17:14:03;16.2;15;11.8
45788;PMS7003;31492;54.856;26.318;2022-09-27T17:18:57;15;14.3;11.8
45788;PMS7003;31492;54.856;26.318;2022-09-27T17:24:05;15.6;15.2;12.6
45788;PMS7003;31492;54.856;26.318;2022-09-27T17:29:05;15.6;14.6;11.4
45788;PMS7003;31492;54.856;26.318;2022-09-27T17:34:07;15.8;14.8;12.2
45788;PMS7003;31492;54.856;26.318;2022-09-27T17:39:05;16.8;15.3;12
45788;PMS7003;31492;54.856;26.318;2022-09-27T17:44:08;15.2;15;11.8
45788;PMS7003;31492;54.856;26.318;2022-09-27T17:49:08;17;14.8;11.8
45788;PMS7003;31492;54.856;26.318;2022-09-27T17:54:09;16;15.6;12.6
45788;PMS7003;31492;54.856;26.318;2022-09-27T17:59:05;17;14.8;11.8
45788;PMS7003;31492;54.856;26.318;2022-09-27T18:03:55;19;16.8;12.5
45788;PMS7003;31492;54.856;26.318;2022-09-27T18:09:05;17.4;15.4;12
45788;PMS7003;31492;54.856;26.318;2022-09-27T18:14:03;16.6;15.8;12.4
45788;PMS7003;31492;54.856;26.318;2022-09-27T18:19:02;15.8;15.2;11.8
45788;PMS7003;31492;54.856;26.318;2022-09-27T18:24:07;18;16;12.3
45788;PMS7003;31492;54.856;26.318;2022-09-27T18:29:06;14.8;14.8;11
45788;PMS7003;31492;54.856;26.318;2022-09-27T18:34:03;16.2;14.8;12.4
45788;PMS7003;31492;54.856;26.318;2022-09-27T18:39:11;17;14.8;11.6
45788;PMS7003;31492;54.856;26.318;2022-09-27T18:44:05;16.8;14.8;11.5
45788;PMS7003;31492;54.856;26.318;2022-09-27T18:49:06;17.6;16.4;12
45788;PMS7003;31492;54.856;26.318;2022-09-27T18:54:09;18.4;15.8;12
45788;PMS7003;31492;54.856;26.318;2022-09-27T18:59:09;17.2;15.6;12.6
45788;PMS7003;31492;54.856;26.318;2022-09-27T19:04:06;16;14;11
45788;PMS7003;31492;54.856;26.318;2022-09-27T19:09:09;15;14.4;11.8
45788;PMS7003;31492;54.856;26.318;2022-09-27T19:14:13;15.6;15;12.2
45788;PMS7003;31492;54.856;26.318;2022-09-27T19:19:07;15.4;13.8;11.2
45788;PMS7003;31492;54.856;26.318;2022-09-27T19:24:05;16;15.5;12
45788;PMS7003;31492;54.856;26.318;2022-09-27T19:29:07;15.8;14.8;12
45788;PMS7003;31492;54.856;26.318;2022-09-27T19:34:09;14.8;13.8;11.4
45788;PMS7003;31492;54.856;26.318;2022-09-27T19:39:05;15;13.6;11.2
45788;PMS7003;31492;54.856;26.318;2022-09-27T19:44:03;16.4;15.2;11.4
45788;PMS7003;31492;54.856;26.318;2022-09-27T19:49:05;12.8;12.3;10.3
45788;PMS7003;31492;54.856;26.318;2022-09-27T19:54:08;14.8;13.4;10.6
45788;PMS7003;31492;54.856;26.318;2022-09-27T19:59:07;13.6;13.4;11.4
45788;PMS7003;31492;54.856;26.318;2022-09-27T20:04:05;16;13.8;11
45788;PMS7003;31492;54.856;26.318;2022-09-27T20:09:07;15.5;14.3;11.5
45788;PMS7003;31492;54.856;26.318;2022-09-27T20:14:07;15.8;14;11.4
45788;PMS7003;31492;54.856;26.318;2022-09-27T20:19:07;15;13.8;11.2
45788;PMS7003;31492;54.856;26.318;2022-09-27T20:24:09;14.4;13.2;10.6
45788;PMS7003;31492;54.856;26.318;2022-09-27T20:29:11;14.5;14.3;11.5
45788;PMS7003;31492;54.856;26.318;2022-09-27T20:33:37;14.2;13;10.6
45788;PMS7003;31492;54.856;26.318;2022-09-27T20:39:04;12.6;12.2;10.4
45788;PMS7003;31492;54.856;26.318;2022-09-27T20:44:12;12.2;12.2;9.8
45788;PMS7003;31492;54.856;26.318;2022-09-27T20:49:10;16.3;15;11.3
45788;PMS7003;31492;54.856;26.318;2022-09-27T20:54:08;14.6;13.2;10.4
45788;PMS7003;31492;54.856;26.318;2022-09-27T20:59:22;13.4;12.8;10
45788;PMS7003;31492;54.856;26.318;2022-09-27T21:04:03;14.2;13.6;10.6
45788;PMS7003;31492;54.856;26.318;2022-09-27T21:09:05;13.3;13;10
45788;PMS7003;31492;54.856;26.318;2022-09-27T21:14:05;15;12.6;9.8
45788;PMS7003;31492;54.856;26.318;2022-09-27T21:19:05;12.2;11.6;9.8
45788;PMS7003;31492;54.856;26.318;2022-09-27T21:23:57;13.6;12.6;10.2
45788;PMS7003;31492;54.856;26.318;2022-09-27T21:29:06;13.4;11.6;9.8
45788;PMS7003;31492;54.856;26.318;2022-09-27T21:34:07;13;11.3;9.8
45788;PMS7003;31492;54.856;26.318;2022-09-27T21:39:07;13.4;11.8;9.8
45788;PMS7003;31492;54.856;26.318;2022-09-27T21:44:08;13.4;12.8;10.2
45788;PMS7003;31492;54.856;26.318;2022-09-27T21:49:11;12.4;11.8;9.6
45788;PMS7003;31492;54.856;26.318;2022-09-27T21:53:38;14.3;12.8;11
45788;PMS7003;31492;54.856;26.318;2022-09-27T21:59:03;14.6;13;10.4
45788;PMS7003;31492;54.856;26.318;2022-09-27T22:04:09;14;11.8;9.4
45788;PMS7003;31492;54.856;26.318;2022-09-27T22:09:07;12;11.4;9
45788;PMS7003;31492;54.856;26.318;2022-09-27T22:14:05;12;11.8;10
45788;PMS7003;31492;54.856;26.318;2022-09-27T22:19:05;13;12.2;9.6
45788;PMS7003;31492;54.856;26.318;2022-09-27T22:24:10;14.6;13.6;9.8
45788;PMS7003;31492;54.856;26.318;2022-09-27T22:29:07;13.6;12;10.2
45788;PMS7003;31492;54.856;26.318;2022-09-27T22:34:06;13;12.8;10.8
45788;PMS7003;31492;54.856;26.318;2022-09-27T22:39:09;14.3;13.3;10.5
